createdAt,value
2023-03-03T00:00:48.112Z,161.00
2023-03-03T00:03:16.316Z,126.67
2023-03-03T00:05:42.787Z,148.67
2023-03-03T00:08:10.532Z,139.33
2023-03-03T00:10:37.337Z,148.00
2023-03-03T00:13:03.870Z,119.33
2023-03-03T00:15:31.378Z,140.00
2023-03-03T00:17:59.203Z,135.67
2023-03-03T00:20:28.277Z,126.67
2023-03-03T00:22:55.486Z,140.25
2023-03-03T00:25:28.869Z,130.67
2023-03-03T00:28:00.954Z,123.75
2023-03-03T00:30:27.916Z,105.00
2023-03-03T00:32:55.654Z,108.50
2023-03-03T00:35:22.233Z,115.00
2023-03-03T00:37:50.376Z,113.25
2023-03-03T00:40:23.965Z,114.00
2023-03-03T00:42:55.203Z,124.50
2023-03-03T00:45:38.224Z,115.50
2023-03-03T00:48:24.418Z,116.50
2023-03-03T00:50:51.687Z,137.25
2023-03-03T00:53:21.282Z,119.75
2023-03-03T00:55:49.106Z,112.75
2023-03-03T00:58:15.589Z,117.75
2023-03-03T01:00:42.626Z,122.75
2023-03-03T01:03:10.284Z,119.50
2023-03-03T01:05:36.726Z,117.00
2023-03-03T01:08:03.732Z,124.25
2023-03-03T01:10:32.462Z,132.00
2023-03-03T01:12:59.249Z,115.25
2023-03-03T01:15:25.762Z,124.50
2023-03-03T01:17:52.308Z,116.00
2023-03-03T01:20:18.804Z,118.25
2023-03-03T01:22:45.175Z,117.25
2023-03-03T01:25:11.577Z,138.67
2023-03-03T01:27:38.473Z,121.00
2023-03-03T01:30:05.704Z,126.00
2023-03-03T01:32:32.332Z,115.00
2023-03-03T01:34:58.716Z,123.50
2023-03-03T01:37:27.782Z,116.50
2023-03-03T01:39:54.795Z,128.25
2023-03-03T01:42:21.747Z,122.00
2023-03-03T01:44:49.404Z,118.25
2023-03-03T01:47:30.002Z,117.00
2023-03-03T01:49:58.294Z,123.00
2023-03-03T01:52:24.873Z,115.50
2023-03-03T01:54:55.748Z,118.00
2023-03-03T01:57:29.683Z,126.00
2023-03-03T01:59:57.440Z,117.50
2023-03-03T02:02:25.352Z,127.00
2023-03-03T02:04:51.836Z,117.75
2023-03-03T02:07:19.826Z,139.25
2023-03-03T02:10:07.046Z,131.75
2023-03-03T02:12:50.534Z,134.50
2023-03-03T02:15:28.792Z,114.25
2023-03-03T02:17:59.626Z,130.50
2023-03-03T02:20:41.665Z,112.00
2023-03-03T02:23:13.716Z,125.75
2023-03-03T02:25:51.532Z,125.00
2023-03-03T02:28:18.224Z,132.50
2023-03-03T02:30:44.827Z,127.00
2023-03-03T02:33:14.149Z,143.67
2023-03-03T02:35:41.741Z,151.67
2023-03-03T02:38:23.410Z,159.33
2023-03-03T02:40:57.207Z,144.75
2023-03-03T02:43:26.974Z,149.75
2023-03-03T02:45:53.729Z,150.50
2023-03-03T02:48:20.386Z,127.25
2023-03-03T02:50:46.823Z,151.00
2023-03-03T02:53:13.239Z,133.25
2023-03-03T02:55:39.656Z,144.25
2023-03-03T02:58:06.321Z,139.00
2023-03-03T03:00:33.384Z,101.75
2023-03-03T03:02:59.947Z,133.00
2023-03-03T03:05:26.484Z,120.00
2023-03-03T03:07:53.413Z,121.00
2023-03-03T03:10:20.830Z,124.50
2023-03-03T03:12:50.522Z,108.75
2023-03-03T03:15:21.662Z,112.25
2023-03-03T03:17:48.205Z,102.00
2023-03-03T03:20:18.377Z,105.50
2023-03-03T03:22:49.742Z,101.25
2023-03-03T03:25:19.289Z,102.00
2023-03-03T03:27:46.215Z,92.25
2023-03-03T03:30:13.303Z,90.00
2023-03-03T03:32:44.646Z,82.75
2023-03-03T03:35:11.599Z,93.25
2023-03-03T03:37:40.329Z,90.25
2023-03-03T03:40:09.972Z,88.50
2023-03-03T03:42:37.931Z,83.00
2023-03-03T03:45:04.981Z,63.00
2023-03-03T03:47:31.845Z,74.25
2023-03-03T03:49:58.381Z,68.00
2023-03-03T03:52:24.876Z,65.50
2023-03-03T03:54:51.595Z,67.50
2023-03-03T03:57:18.058Z,68.75
2023-03-03T03:59:44.993Z,58.75
2023-03-03T04:02:11.978Z,62.50
2023-03-03T04:04:38.482Z,69.00
2023-03-03T04:07:06.216Z,71.25
2023-03-03T04:09:35.445Z,69.25
2023-03-03T04:12:01.888Z,74.25
2023-03-03T04:14:28.425Z,76.25
2023-03-03T04:16:54.992Z,61.25
2023-03-03T04:19:22.609Z,78.50
2023-03-03T04:21:49.235Z,56.00
2023-03-03T04:24:17.228Z,67.25
2023-03-03T04:26:44.734Z,70.75
2023-03-03T04:29:11.259Z,68.50
2023-03-03T04:31:39.749Z,55.75
2023-03-03T04:34:06.675Z,64.25
2023-03-03T04:36:33.225Z,49.00
2023-03-03T04:38:59.936Z,58.50
2023-03-03T04:41:26.905Z,65.25
2023-03-03T04:43:53.353Z,57.25
2023-03-03T04:46:20.393Z,62.75
2023-03-03T04:48:46.857Z,62.50
2023-03-03T04:51:13.240Z,93.75
2023-03-03T04:53:39.661Z,75.00
2023-03-03T04:56:06.127Z,54.25
2023-03-03T04:58:32.845Z,61.25
2023-03-03T05:00:59.576Z,67.25
2023-03-03T05:03:26.972Z,31.50
2023-03-03T05:05:53.748Z,75.50
2023-03-03T05:08:20.398Z,80.75
2023-03-03T05:10:46.824Z,83.00
2023-03-03T05:13:15.487Z,70.50
2023-03-03T05:15:43.303Z,68.50
2023-03-03T05:18:09.768Z,56.50
2023-03-03T05:20:36.672Z,68.75
2023-03-03T05:23:03.157Z,67.00
2023-03-03T05:25:30.655Z,61.50
2023-03-03T05:27:57.043Z,71.00
2023-03-03T05:30:23.471Z,76.25
2023-03-03T05:32:50.126Z,70.00
2023-03-03T05:35:16.648Z,77.75
2023-03-03T05:37:47.330Z,78.25
2023-03-03T05:40:14.779Z,74.50
2023-03-03T05:42:41.359Z,60.75
2023-03-03T05:45:08.016Z,67.25
2023-03-03T05:47:34.401Z,71.25
2023-03-03T05:50:01.263Z,68.25
2023-03-03T05:52:27.700Z,66.00
2023-03-03T05:54:54.230Z,68.50
2023-03-03T05:57:21.476Z,73.75
2023-03-03T05:59:47.915Z,56.50
2023-03-03T06:02:14.488Z,64.50
2023-03-03T06:04:41.154Z,68.75
2023-03-03T06:07:07.524Z,74.75
2023-03-03T06:09:34.018Z,78.25
2023-03-03T06:12:00.494Z,40.25
2023-03-03T06:14:27.320Z,74.00
2023-03-03T06:16:56.760Z,84.50
2023-03-03T06:19:23.292Z,93.00
2023-03-03T06:21:50.450Z,110.00
2023-03-03T06:24:16.813Z,78.50
2023-03-03T06:26:43.292Z,72.00
2023-03-03T06:29:11.124Z,66.50
2023-03-03T06:31:37.578Z,56.25
2023-03-03T06:34:04.006Z,67.50
2023-03-03T06:36:30.412Z,60.00
2023-03-03T06:38:56.837Z,76.50
2023-03-03T06:41:23.345Z,268.75
2023-03-03T06:43:49.743Z,117.00
2023-03-03T06:46:17.796Z,178.67
2023-03-03T06:48:44.215Z,100.00
2023-03-03T06:51:40.043Z,91.75
2023-03-03T06:54:13.743Z,124.75
2023-03-03T06:56:40.445Z,91.50
2023-03-03T06:59:20.706Z,43.00
2023-03-03T07:01:48.694Z,59.50
2023-03-03T07:04:19.538Z,71.25
2023-03-03T07:06:46.067Z,64.75
2023-03-03T07:09:20.639Z,82.00
2023-03-03T07:11:47.113Z,78.25
2023-03-03T07:14:18.274Z,96.25
2023-03-03T07:16:45.002Z,82.25
2023-03-03T07:19:20.427Z,80.25
2023-03-03T07:21:47.180Z,76.25
2023-03-03T07:24:13.671Z,65.25
2023-03-03T07:26:40.058Z,72.75
2023-03-03T07:29:24.130Z,163.33
2023-03-03T07:31:51.103Z,105.25
2023-03-03T07:34:21.414Z,84.50
2023-03-03T07:36:49.299Z,103.00
2023-03-03T07:39:23.750Z,84.75
2023-03-03T07:41:50.066Z,9.00
2023-03-03T07:44:21.474Z,50.00
2023-03-03T07:46:48.622Z,76.50
2023-03-03T07:49:31.868Z,92.75
2023-03-03T07:52:01.834Z,66.50
2023-03-03T07:54:28.638Z,52.00
2023-03-03T07:57:15.348Z,69.00
2023-03-03T07:59:52.102Z,70.25
2023-03-03T08:02:33.728Z,78.50
2023-03-03T08:05:02.170Z,74.50
2023-03-03T08:07:30.654Z,74.50
2023-03-03T08:09:59.465Z,72.50
2023-03-03T08:12:30.031Z,76.50
2023-03-03T08:14:58.405Z,74.75
2023-03-03T08:17:27.918Z,74.50
2023-03-03T08:19:55.333Z,68.25
2023-03-03T08:22:21.791Z,71.75
2023-03-03T08:24:49.251Z,62.75
2023-03-03T08:27:15.704Z,73.50
2023-03-03T08:29:42.101Z,71.50
2023-03-03T08:32:08.686Z,56.75
2023-03-03T08:34:35.137Z,70.50
2023-03-03T08:37:01.938Z,70.50
2023-03-03T08:39:28.332Z,67.50
2023-03-03T08:41:54.702Z,67.50
2023-03-03T08:44:23.638Z,75.00
2023-03-03T08:46:50.398Z,64.75
2023-03-03T08:49:16.860Z,66.00
2023-03-03T08:51:43.276Z,62.00
2023-03-03T08:54:09.707Z,79.00
2023-03-03T08:56:36.158Z,67.00
2023-03-03T08:59:03.319Z,72.50
2023-03-03T09:01:30.910Z,77.25
2023-03-03T09:03:57.481Z,86.50
2023-03-03T09:06:23.887Z,111.25
2023-03-03T09:08:50.480Z,68.25
2023-03-03T09:11:22.084Z,91.50
2023-03-03T09:13:53.353Z,64.25
2023-03-03T09:16:22.329Z,81.25
2023-03-03T09:18:48.818Z,85.00
2023-03-03T09:21:21.000Z,89.75
2023-03-03T09:23:49.534Z,90.50
2023-03-03T09:26:40.273Z,103.75
2023-03-03T09:29:06.791Z,74.25
2023-03-03T09:31:39.400Z,103.50
2023-03-03T09:34:24.101Z,102.50
2023-03-03T09:36:51.570Z,70.75
2023-03-03T09:39:18.799Z,82.50
2023-03-03T09:41:51.341Z,63.50
2023-03-03T09:44:36.783Z,74.25
2023-03-03T09:47:03.288Z,116.00
2023-03-03T09:49:36.031Z,89.25
2023-03-03T09:52:17.474Z,88.50
2023-03-03T09:55:04.115Z,121.50
2023-03-03T09:57:33.732Z,83.00
2023-03-03T10:00:09.283Z,68.25
2023-03-03T10:02:41.960Z,97.50
2023-03-03T10:05:15.255Z,89.50
2023-03-03T10:07:53.951Z,66.50
2023-03-03T10:10:43.732Z,64.75
2023-03-03T10:13:15.956Z,78.75
2023-03-03T10:16:07.305Z,104.00
2023-03-03T10:18:33.945Z,132.00
2023-03-03T10:21:09.296Z,89.25
2023-03-03T10:23:56.768Z,66.25
2023-03-03T10:26:42.150Z,77.75
2023-03-03T10:29:12.001Z,74.50
2023-03-03T10:31:53.807Z,83.75
2023-03-03T10:34:39.612Z,70.50
2023-03-03T10:37:08.798Z,74.50
2023-03-03T10:39:53.867Z,73.75
2023-03-03T10:42:39.180Z,86.00
2023-03-03T10:45:05.631Z,70.25
2023-03-03T10:47:53.881Z,71.50
2023-03-03T10:50:28.877Z,76.25
2023-03-03T10:53:15.558Z,73.50
2023-03-03T10:55:50.065Z,80.50
2023-03-03T10:58:38.521Z,69.50
2023-03-03T11:01:11.721Z,64.50
2023-03-03T11:03:58.894Z,68.25
2023-03-03T11:06:29.662Z,72.25
2023-03-03T11:09:03.184Z,74.25
2023-03-03T11:11:32.672Z,63.50
2023-03-03T11:14:05.230Z,66.25
2023-03-03T11:16:44.503Z,54.50
2023-03-03T11:19:11.469Z,71.00
2023-03-03T11:21:59.803Z,62.00
2023-03-03T11:24:52.376Z,59.75
2023-03-03T11:27:39.964Z,67.75
2023-03-03T11:30:06.348Z,64.50
2023-03-03T11:32:32.756Z,70.75
2023-03-03T11:35:17.774Z,71.00
2023-03-03T11:37:44.140Z,75.00
2023-03-03T11:40:28.778Z,59.75
2023-03-03T11:43:36.138Z,62.75
2023-03-03T11:46:06.950Z,57.25
2023-03-03T11:48:38.216Z,70.75
2023-03-03T11:51:12.389Z,74.00
2023-03-03T11:53:46.104Z,69.00
2023-03-03T11:56:31.677Z,55.50
2023-03-03T11:59:16.904Z,66.75
2023-03-03T12:02:02.051Z,60.75
2023-03-03T12:04:37.522Z,68.75
2023-03-03T12:07:23.819Z,63.00
2023-03-03T12:10:02.068Z,58.25
2023-03-03T12:12:51.748Z,69.50
2023-03-03T12:15:47.700Z,49.25
2023-03-03T12:18:33.603Z,73.50
2023-03-03T12:21:10.020Z,56.50
2023-03-03T12:23:46.878Z,61.75
2023-03-03T12:26:17.549Z,62.00
2023-03-03T12:28:43.870Z,52.50
2023-03-03T12:31:10.213Z,62.50
2023-03-03T12:33:51.630Z,62.75
2023-03-03T12:36:18.115Z,43.75
2023-03-03T12:38:44.472Z,66.75
2023-03-03T12:41:20.396Z,62.50
2023-03-03T12:43:50.143Z,54.50
2023-03-03T12:46:29.975Z,48.25
2023-03-03T12:48:56.995Z,57.25
2023-03-03T12:51:26.201Z,52.75
2023-03-03T12:53:58.593Z,53.50
2023-03-03T12:56:28.850Z,67.75
2023-03-03T12:59:18.333Z,67.00
2023-03-03T13:01:55.477Z,63.00
2023-03-03T13:04:33.892Z,91.75
2023-03-03T13:07:18.943Z,187.00
2023-03-03T13:10:08.841Z,85.75
2023-03-03T13:12:58.639Z,102.25
2023-03-03T13:15:33.189Z,104.50
2023-03-03T13:18:06.521Z,100.75
2023-03-03T13:20:51.910Z,90.75
2023-03-03T13:23:38.920Z,97.75
2023-03-03T13:26:13.828Z,100.75
2023-03-03T13:28:53.288Z,111.50
2023-03-03T13:31:23.869Z,126.00
2023-03-03T13:33:54.697Z,80.75
2023-03-03T13:36:23.759Z,67.75
2023-03-03T13:38:53.546Z,85.75
2023-03-03T13:41:43.813Z,66.50
2023-03-03T13:44:20.357Z,84.00
2023-03-03T13:47:19.379Z,61.50
2023-03-03T13:49:52.323Z,88.25
2023-03-03T13:52:22.752Z,73.25
2023-03-03T13:54:58.474Z,88.50
2023-03-03T13:57:38.734Z,72.00
2023-03-03T14:00:26.122Z,65.50
2023-03-03T14:03:11.693Z,63.75
2023-03-03T14:05:41.920Z,55.00
2023-03-03T14:08:15.913Z,61.50
2023-03-03T14:10:45.474Z,62.50
2023-03-03T14:13:13.020Z,66.00
2023-03-03T14:15:53.196Z,69.75
2023-03-03T14:18:25.811Z,61.50
2023-03-03T14:23:56.127Z,70.25
2023-03-03T14:26:23.821Z,66.25
2023-03-03T14:28:53.630Z,62.75
2023-03-03T14:31:25.249Z,74.00
2023-03-03T14:34:00.116Z,67.50
2023-03-03T14:36:30.422Z,68.25
2023-03-03T14:38:58.361Z,57.75
2023-03-03T14:41:36.731Z,54.00
2023-03-03T14:44:24.646Z,61.75
2023-03-03T14:47:22.277Z,66.25
2023-03-03T14:49:49.279Z,60.50
2023-03-03T14:52:15.687Z,65.75
2023-03-03T14:54:46.247Z,63.75
2023-03-03T14:57:33.976Z,65.75
2023-03-03T15:00:06.877Z,73.00
2023-03-03T15:02:53.215Z,67.75
2023-03-03T15:05:22.182Z,61.00
2023-03-03T15:07:53.803Z,71.00
2023-03-03T15:10:32.077Z,71.25
2023-03-03T15:12:59.262Z,80.00
2023-03-03T15:15:26.867Z,84.00
2023-03-03T15:17:57.913Z,65.00
2023-03-03T15:20:32.466Z,68.00
2023-03-03T15:23:18.592Z,70.25
2023-03-03T15:25:53.211Z,76.50
2023-03-03T15:28:26.651Z,69.25
2023-03-03T15:30:55.736Z,67.75
2023-03-03T15:33:42.345Z,71.75
2023-03-03T15:36:22.930Z,81.00
2023-03-03T15:38:49.258Z,104.25
2023-03-03T15:41:15.668Z,74.00
2023-03-03T15:43:59.433Z,102.25
2023-03-03T15:46:35.170Z,74.50
2023-03-03T15:49:25.057Z,81.75
2023-03-03T15:52:22.643Z,127.25
2023-03-03T15:55:06.486Z,109.50
2023-03-03T15:57:41.756Z,151.75
2023-03-03T16:00:08.241Z,149.50
2023-03-03T16:03:02.578Z,159.67
2023-03-03T16:05:32.150Z,174.33
2023-03-03T16:08:20.872Z,103.25
2023-03-03T16:11:00.946Z,114.00
2023-03-03T16:13:27.457Z,215.33
2023-03-03T16:16:12.638Z,75.25
2023-03-03T16:18:39.828Z,96.50
2023-03-03T16:21:34.367Z,126.50
2023-03-03T16:24:07.267Z,108.75
2023-03-03T16:26:42.450Z,179.00
2023-03-03T16:29:18.154Z,129.00
2023-03-03T16:31:56.769Z,102.00
2023-03-03T16:34:49.479Z,157.33
2023-03-03T16:37:30.048Z,135.75
2023-03-03T16:40:02.646Z,91.25
2023-03-03T16:42:30.228Z,90.00
2023-03-03T16:44:59.788Z,83.50
2023-03-03T16:47:32.247Z,88.25
2023-03-03T16:50:01.654Z,87.50
2023-03-03T16:52:54.599Z,77.25
2023-03-03T16:55:36.323Z,75.00
2023-03-03T16:58:09.371Z,14.75
2023-03-03T17:00:50.698Z,74.50
2023-03-03T17:03:17.429Z,86.00
2023-03-03T17:05:47.664Z,80.75
2023-03-03T17:08:16.825Z,80.00
2023-03-03T17:10:51.496Z,75.00
2023-03-03T17:13:36.372Z,37.75
2023-03-03T17:16:08.519Z,78.50
2023-03-03T17:18:38.475Z,73.50
2023-03-03T17:21:11.693Z,65.25
2023-03-03T17:23:49.287Z,68.25
2023-03-03T17:26:37.232Z,67.25
2023-03-03T17:29:08.896Z,70.00
2023-03-03T17:31:47.440Z,90.25
2023-03-03T17:34:22.669Z,74.25
2023-03-03T17:36:58.265Z,63.75
2023-03-03T17:39:37.631Z,78.50
2023-03-03T17:42:10.979Z,77.00
2023-03-03T17:44:40.727Z,86.25
2023-03-03T17:47:08.964Z,76.00
2023-03-03T17:49:35.325Z,81.75
2023-03-03T17:52:14.585Z,74.25
2023-03-03T17:54:43.848Z,52.75
2023-03-03T17:57:33.017Z,71.25
2023-03-03T18:00:02.202Z,84.25
2023-03-03T18:02:34.446Z,80.25
2023-03-03T18:05:03.979Z,76.75
2023-03-03T18:07:50.609Z,79.00
2023-03-03T18:10:23.141Z,70.25
2023-03-03T18:13:04.905Z,67.25
2023-03-03T18:15:34.481Z,78.75
2023-03-03T18:18:06.313Z,76.00
2023-03-03T18:20:50.920Z,72.75
2023-03-03T18:23:41.797Z,76.00
2023-03-03T18:26:30.738Z,89.25
2023-03-03T18:29:15.648Z,80.25
2023-03-03T18:31:54.350Z,75.75
2023-03-03T18:34:20.785Z,71.50
2023-03-03T18:37:02.572Z,71.75
2023-03-03T18:39:49.630Z,73.25
2023-03-03T18:42:15.982Z,85.25
2023-03-03T18:44:47.883Z,75.50
2023-03-03T18:47:15.088Z,80.75
2023-03-03T18:49:41.515Z,68.50
2023-03-03T18:52:36.492Z,72.25
2023-03-03T18:55:12.438Z,81.50
2023-03-03T18:57:38.814Z,90.75
2023-03-03T19:00:15.584Z,84.25
2023-03-03T19:02:51.005Z,79.00
2023-03-03T19:05:25.604Z,69.50
2023-03-03T19:07:53.544Z,79.50
2023-03-03T19:10:19.981Z,73.00
2023-03-03T19:12:47.221Z,75.25
2023-03-03T19:15:34.377Z,69.25
2023-03-03T19:18:19.855Z,19.25
2023-03-03T19:20:49.317Z,69.25
2023-03-03T19:23:20.407Z,69.25
2023-03-03T19:26:06.751Z,61.25
2023-03-03T19:28:44.387Z,75.25
2023-03-03T19:31:37.090Z,49.50
2023-03-03T19:34:10.481Z,56.50
2023-03-03T19:36:36.867Z,61.00
2023-03-03T19:39:21.982Z,59.50
2023-03-03T19:42:04.330Z,67.25
2023-03-03T19:44:45.912Z,69.00
2023-03-03T19:47:19.376Z,62.25
2023-03-03T19:50:05.425Z,67.75
2023-03-03T19:52:38.625Z,76.50
2023-03-03T19:55:16.187Z,79.25
2023-03-03T19:57:42.576Z,85.00
2023-03-03T20:00:08.896Z,49.50
2023-03-03T20:02:47.897Z,56.25
2023-03-03T20:05:34.815Z,62.00
2023-03-03T20:08:04.073Z,59.50
2023-03-03T20:10:33.539Z,67.50
2023-03-03T20:13:26.444Z,72.75
2023-03-03T20:16:00.872Z,68.50
2023-03-03T20:18:40.918Z,52.00
2023-03-03T20:21:10.153Z,65.00
2023-03-03T20:23:49.595Z,62.50
2023-03-03T20:26:22.228Z,65.50
2023-03-03T20:29:07.457Z,38.50
2023-03-03T20:31:41.381Z,58.25
2023-03-03T20:34:28.302Z,64.25
2023-03-03T20:37:15.970Z,53.25
2023-03-03T20:39:42.390Z,62.00
2023-03-03T20:42:16.044Z,51.25
2023-03-03T20:44:54.694Z,58.75
2023-03-03T20:47:36.251Z,45.50
2023-03-03T20:50:15.874Z,64.25
2023-03-03T20:52:53.034Z,60.50
2023-03-03T20:55:22.443Z,47.50
2023-03-03T20:58:07.584Z,59.25
2023-03-03T21:00:34.011Z,55.25
2023-03-03T21:03:10.259Z,64.75
2023-03-03T21:05:53.670Z,73.75
2023-03-03T21:08:20.103Z,62.00
2023-03-03T21:10:55.525Z,56.50
2023-03-03T21:13:34.219Z,50.50
2023-03-03T21:16:06.555Z,41.25
2023-03-03T21:18:32.984Z,60.75
2023-03-03T21:20:59.387Z,57.50
2023-03-03T21:23:25.851Z,50.25
2023-03-03T21:25:53.596Z,40.75
2023-03-03T21:28:22.909Z,45.75
2023-03-03T21:30:59.451Z,44.00
2023-03-03T21:33:44.577Z,55.50
2023-03-03T21:36:14.159Z,43.75
2023-03-03T21:38:40.672Z,49.25
2023-03-03T21:41:07.758Z,48.00
2023-03-03T21:43:36.184Z,55.50
2023-03-03T21:46:02.741Z,47.25
2023-03-03T21:48:29.186Z,29.25
2023-03-03T21:50:56.014Z,43.50
2023-03-03T21:53:23.834Z,41.50
2023-03-03T21:55:50.527Z,48.25
2023-03-03T21:58:16.915Z,45.25
2023-03-03T22:00:46.164Z,45.50
2023-03-03T22:03:13.667Z,40.25
2023-03-03T22:05:40.695Z,40.50
2023-03-03T22:08:07.470Z,42.50
2023-03-03T22:10:34.045Z,56.75
2023-03-03T22:13:00.464Z,49.25
2023-03-03T22:15:27.779Z,39.00
2023-03-03T22:17:54.245Z,45.75
2023-03-03T22:20:20.752Z,39.50
2023-03-03T22:22:47.637Z,41.00
2023-03-03T22:25:14.110Z,47.75
2023-03-03T22:27:40.468Z,21.75
2023-03-03T22:30:07.248Z,30.50
2023-03-03T22:32:33.716Z,44.75
2023-03-03T22:35:00.396Z,49.50
2023-03-03T22:37:26.825Z,51.25
2023-03-03T22:39:53.273Z,37.25
2023-03-03T22:42:20.642Z,43.50
2023-03-03T22:44:47.098Z,40.50
2023-03-03T22:47:13.536Z,32.00
2023-03-03T22:49:39.915Z,38.00
2023-03-03T22:52:07.309Z,35.25
2023-03-03T22:54:33.697Z,25.75
2023-03-03T22:57:00.126Z,54.00
2023-03-03T22:59:26.660Z,40.25
2023-03-03T23:01:52.976Z,33.00
2023-03-03T23:04:19.394Z,41.50
2023-03-03T23:06:46.827Z,39.25
2023-03-03T23:09:13.227Z,35.75
2023-03-03T23:11:39.578Z,37.50
2023-03-03T23:14:06.209Z,39.25
2023-03-03T23:16:32.721Z,25.75
2023-03-03T23:18:59.120Z,30.25
2023-03-03T23:21:25.498Z,38.75
2023-03-03T23:23:52.062Z,56.25
2023-03-03T23:26:18.526Z,44.25
2023-03-03T23:28:46.029Z,40.00
2023-03-03T23:31:12.487Z,50.00
2023-03-03T23:33:38.922Z,39.25
2023-03-03T23:36:05.448Z,43.75
2023-03-03T23:38:31.813Z,52.50
2023-03-03T23:40:58.204Z,46.75
2023-03-03T23:43:26.229Z,56.00
2023-03-03T23:45:52.622Z,35.75
2023-03-03T23:48:20.660Z,44.50
2023-03-03T23:50:49.783Z,47.25
2023-03-03T23:53:16.367Z,55.00
2023-03-03T23:55:43.330Z,57.50
2023-03-03T23:58:10.030Z,42.75
